Loachapoka, Alabama
Current Conditions -  °F | °C
As of 5:55 PM on Monday 20 Oct 2014 (Local Time) from KAUO Reporting Station
Clear Clear  
Wind Chill: 66°   Ceiling: Unl
Heat Index: 66°   Visibility: 10mi
Dew Point: 48°   Wind: 5mph
Humidity: 52%   Direction: 290°WNW
Pressure: 30.04"   Gusts: NA
Location:  32.6°N, 85.59°W
Report Text: KAUO 202255Z AUTO 29004KT 10SM CLR 19/09 A3004 RMK AO1
Loading
Personal Weather Stations






























Interactive Weather Map
Tropical Storm Tracking
New forecast layout! Learn more

10-Day Weather Forecast

Advertisements
Track Severe Weather on mobile